Time;durP1;ratioP1;P1;durP2;ratioP2;P2;SDS_P1;SDS_P2;PMS_P1;PMS_P2;Temp;Humidity;BMP_temperature;BMP_pressure;BME280_temperature;BME280_humidity;BME280_pressure;Samples;Min_cycle;Max_cycle;Signal;HPM_P1;HPM_P2
2022/03/19 14:29:09;;;;;;;21.88;1.48;;;;;;;11.68;35.66;103919.72;5157631;27;20128;-81
2022/03/19 14:31:35;;;;;;;25.63;1.55;;;;;;;11.70;36.03;103930.25;5116583;27;20339;-81
2022/03/19 14:34:00;;;;;;;34.90;3.63;;;;;;;11.72;34.15;103920.63;5111183;28;20062;-81
2022/03/19 14:36:27;;;;;;;41.33;4.00;;;;;;;11.74;34.21;103904.88;5123996;27;20024;-81
2022/03/19 14:38:54;;;;;;;15.07;2.80;;;;;;;11.77;35.04;103905.75;5111637;27;20334;-81
2022/03/19 14:41:20;;;;;;;23.80;1.88;;;;;;;11.79;34.45;103911.00;5111782;28;20031;-81
2022/03/19 14:43:48;;;;;;;8.52;1.40;;;;;;;11.81;34.86;103909.28;5107452;28;20105;-81
2022/03/19 14:46:14;;;;;;;18.77;1.67;;;;;;;11.84;34.54;103894.41;5105611;28;20035;-80
2022/03/19 14:48:43;;;;;;;7.90;1.90;;;;;;;11.85;34.92;103895.28;5111071;28;20350;-80
2022/03/19 14:51:09;;;;;;;14.07;1.30;;;;;;;11.85;34.80;103888.25;5128893;27;20276;-80
2022/03/19 14:53:35;;;;;;;10.60;1.73;;;;;;;11.85;34.06;103883.00;5103615;28;20323;-79
2022/03/19 14:56:01;;;;;;;3.72;0.93;;;;;;;11.84;33.48;103889.16;5105852;28;20349;-80
2022/03/19 14:58:27;;;;;;;16.73;1.58;;;;;;;11.82;33.56;103882.13;5116351;28;20023;-80
2022/03/19 15:00:52;;;;;;;9.30;1.42;;;;;;;11.78;35.16;103883.00;5113498;28;20067;-79
2022/03/19 15:03:20;;;;;;;7.53;0.98;;;;;;;11.81;33.13;103870.75;5109975;28;20109;-79
2022/03/19 15:05:46;;;;;;;2.30;0.63;;;;;;;11.81;33.71;103864.63;5101623;28;20032;-79
2022/03/19 15:08:13;;;;;;;8.93;1.38;;;;;;;11.82;33.00;103861.13;5110155;28;20135;-79
2022/03/19 15:10:39;;;;;;;2.85;1.00;;;;;;;11.84;32.62;103859.38;5105901;28;20035;-80
2022/03/19 15:13:11;;;;;;;2.55;0.90;;;;;;;11.80;33.73;103850.59;5113563;28;20048;-80
2022/03/19 15:15:36;;;;;;;9.50;1.02;;;;;;;11.80;33.53;103847.97;5106636;28;20032;-80
2022/03/19 15:18:02;;;;;;;3.45;0.70;;;;;;;11.80;34.48;103847.13;5107247;28;20035;-80
2022/03/19 15:20:27;;;;;;;3.97;1.33;;;;;;;11.80;34.65;103839.25;5100580;28;20047;-80
2022/03/19 15:22:53;;;;;;;3.92;1.25;;;;;;;11.78;35.08;103836.59;5106107;28;20044;-80
2022/03/19 15:25:18;;;;;;;1.42;0.90;;;;;;;11.81;35.24;103827.88;5117652;27;20046;-80
2022/03/19 15:27:44;;;;;;;1.10;0.95;;;;;;;11.79;36.31;103829.59;5073769;28;20036;-80
2022/03/19 15:30:12;;;;;;;3.05;1.20;;;;;;;11.76;36.87;103822.59;5108536;28;20047;-80
2022/03/19 15:38:25;;;;;;;3.42;1.25;;;;;;;11.76;36.64;103827.84;5111389;28;20099;-79
2022/03/19 15:40:50;;;;;;;10.27;1.13;;;;;;;11.74;35.94;103819.09;5088871;28;20267;-80
2022/03/19 15:43:16;;;;;;;4.68;1.27;;;;;;;11.72;35.48;103813.84;5091831;28;20229;-79
2022/03/19 15:45:41;;;;;;;1.63;0.90;;;;;;;11.70;36.41;103815.59;5089704;28;20038;-79
2022/03/19 15:48:09;;;;;;;2.47;1.00;;;;;;;11.70;36.10;103817.34;5085389;28;20070;-79
2022/03/19 15:50:37;;;;;;;9.13;0.90;;;;;;;11.69;35.74;103821.69;5071738;28;20032;-79
2022/03/19 15:53:02;;;;;;;3.88;0.95;;;;;;;11.71;36.25;103816.47;5103899;27;20054;-79
2022/03/19 15:55:27;;;;;;;1.90;0.90;;;;;;;11.68;36.27;103806.84;5085683;28;20036;-80
2022/03/19 15:57:53;;;;;;;4.75;1.10;;;;;;;11.67;36.21;103809.47;5093785;28;20059;-79
2022/03/19 16:00:18;;;;;;;5.90;0.82;;;;;;;11.65;36.22;103803.34;5096698;28;20027;-79
2022/03/19 16:02:44;;;;;;;8.07;0.90;;;;;;;11.61;35.48;103807.69;5094741;28;20103;-79
2022/03/19 16:05:11;;;;;;;3.53;0.77;;;;;;;11.63;36.03;103792.81;5094905;28;20095;-79
2022/03/19 16:07:37;;;;;;;5.43;1.00;;;;;;;11.61;35.23;103798.97;5095452;28;20043;-79
2022/03/19 16:10:03;;;;;;;5.05;0.93;;;;;;;11.60;36.09;103794.56;5096636;28;20495;-80
2022/03/19 16:12:28;;;;;;;2.25;1.20;;;;;;;11.58;35.86;103791.06;5079784;28;20331;-79
2022/03/19 16:14:54;;;;;;;9.90;1.50;;;;;;;11.55;35.36;103788.44;5096872;28;20066;-79
2022/03/19 16:17:20;;;;;;;8.85;1.42;;;;;;;11.52;34.64;103784.06;5092894;28;20043;-79
2022/03/19 16:19:46;;;;;;;3.78;0.80;;;;;;;11.50;35.59;103784.06;5095844;28;20048;-79
2022/03/19 16:22:12;;;;;;;12.75;0.90;;;;;;;11.45;33.26;103779.66;5062559;28;20055;-79
2022/03/19 16:24:37;;;;;;;7.35;0.70;;;;;;;11.42;32.83;103780.50;5094525;28;20361;-79
2022/03/19 16:27:03;;;;;;;0.40;0.40;;;;;;;11.39;33.40;103788.41;5078773;28;20111;-79
2022/03/19 16:29:28;;;;;;;2.00;0.70;;;;;;;11.38;32.78;103786.63;5096240;28;20324;-80
2022/03/19 16:31:54;;;;;;;4.40;0.60;;;;;;;11.38;32.81;103775.28;5094506;28;20308;-80
2022/03/19 16:34:20;;;;;;;1.98;0.55;;;;;;;11.34;32.70;103785.75;5094030;28;20074;-79
2022/03/19 16:36:53;;;;;;;2.88;0.70;;;;;;;11.31;33.52;103790.09;5077761;28;20044;-79
2022/03/19 16:39:19;;;;;;;1.33;0.45;;;;;;;11.27;33.81;103781.34;5090394;27;20035;-80
2022/03/19 16:41:46;;;;;;;2.65;0.70;;;;;;;11.28;33.84;103777.00;5116795;27;20089;-79
2022/03/19 16:44:12;;;;;;;1.27;0.57;;;;;;;11.22;33.54;103780.44;5101436;28;20114;-79
2022/03/19 16:46:37;;;;;;;1.08;0.68;;;;;;;11.18;33.34;103778.69;5113512;28;20043;-79
2022/03/19 16:49:03;;;;;;;2.90;0.90;;;;;;;11.11;34.33;103782.16;5096995;28;20036;-79
2022/03/19 16:51:28;;;;;;;2.55;0.57;;;;;;;11.08;34.56;103776.94;5115870;27;20060;-79
2022/03/19 16:53:54;;;;;;;0.88;0.60;;;;;;;11.05;34.22;103771.66;5081884;28;20450;-79
2022/03/19 16:56:19;;;;;;;3.00;0.50;;;;;;;10.99;34.34;103774.25;5115481;27;20543;-79
2022/03/19 16:58:45;;;;;;;3.88;0.80;;;;;;;10.93;33.66;103773.38;5081698;28;20043;-79
2022/03/19 17:01:11;;;;;;;2.90;0.73;;;;;;;10.88;34.54;103779.47;5118667;27;20264;-79
2022/03/19 17:03:36;;;;;;;4.95;0.63;;;;;;;10.84;34.16;103777.66;5083224;28;20024;-79
2022/03/19 17:06:04;;;;;;;5.43;0.60;;;;;;;10.79;33.63;103772.41;5112599;28;20020;-79
2022/03/19 17:08:30;;;;;;;0.85;0.50;;;;;;;10.76;35.19;103775.88;5115497;28;20032;-79
2022/03/19 17:10:57;;;;;;;0.90;0.60;;;;;;;10.72;34.76;103781.97;5093383;28;20061;-79
2022/03/19 17:13:24;;;;;;;5.72;0.40;;;;;;;10.67;33.98;103781.06;5120108;27;20035;-79
2022/03/19 17:15:49;;;;;;;1.50;0.60;;;;;;;10.66;34.82;103781.06;5088280;28;20034;-80
2022/03/19 17:18:15;;;;;;;0.77;0.55;;;;;;;10.61;34.35;103780.19;5092130;27;20099;-79
2022/03/19 17:20:40;;;;;;;1.15;0.40;;;;;;;10.59;34.74;103781.88;5115634;27;20316;-79
2022/03/19 17:23:06;;;;;;;2.72;0.82;;;;;;;10.51;35.63;103782.75;5086362;28;20031;-79
2022/03/19 17:25:31;;;;;;;2.55;0.90;;;;;;;10.44;35.67;103774.81;5082073;28;20059;-79
2022/03/19 17:27:57;;;;;;;3.45;1.17;;;;;;;10.45;35.47;103774.81;5099305;28;20412;-79
2022/03/19 17:30:22;;;;;;;5.70;0.90;;;;;;;10.36;36.10;103780.88;5078723;28;20031;-79
2022/03/19 17:32:49;;;;;;;1.38;0.80;;;;;;;10.28;36.58;103769.44;5120578;27;20084;-79
2022/03/19 17:35:14;;;;;;;1.35;0.80;;;;;;;10.21;37.84;103779.88;5100300;28;20370;-79
2022/03/19 17:37:41;;;;;;;2.42;1.27;;;;;;;10.18;37.85;103775.47;5111304;28;20036;-79
2022/03/19 17:40:08;;;;;;;12.10;1.60;;;;;;;10.10;37.93;103770.19;5097067;28;20039;-79
2022/03/19 17:42:34;;;;;;;4.88;1.00;;;;;;;10.08;38.97;103776.28;5119617;27;20039;-79
2022/03/19 17:44:59;;;;;;;2.25;1.10;;;;;;;10.01;39.44;103785.81;5115940;27;20059;-79
2022/03/19 17:47:25;;;;;;;1.77;1.10;;;;;;;9.97;39.56;103789.28;5083143;27;20238;-79
2022/03/19 17:49:52;;;;;;;5.38;0.93;;;;;;;9.90;39.83;103777.00;5107672;27;20035;-79
2022/03/19 17:52:18;;;;;;;2.15;1.05;;;;;;;9.84;40.01;103775.19;5088342;28;20031;-79
2022/03/19 17:54:44;;;;;;;1.58;0.73;;;;;;;9.79;40.53;103785.63;5084145;28;20036;-79
2022/03/19 17:57:10;;;;;;;2.25;0.80;;;;;;;9.79;40.60;103777.75;5116551;27;20141;-79
2022/03/19 17:59:36;;;;;;;2.45;0.90;;;;;;;9.72;41.19;103789.03;5093104;27;20319;-79
2022/03/19 18:02:02;;;;;;;6.57;1.58;;;;;;;9.66;41.47;103786.38;5115336;27;20075;-79
2022/03/19 18:04:27;;;;;;;9.52;1.10;;;;;;;9.59;41.84;103785.41;5115508;27;20254;-79
2022/03/19 18:06:55;;;;;;;5.18;1.00;;;;;;;9.55;42.35;103785.34;5082307;27;20036;-79
2022/03/19 18:09:21;;;;;;;7.20;1.30;;;;;;;9.53;43.00;103787.97;5103697;28;20207;-79
2022/03/19 18:11:47;;;;;;;1.85;0.88;;;;;;;9.45;43.30;103788.75;5088090;28;20438;-79
2022/03/19 18:14:12;;;;;;;2.25;1.10;;;;;;;9.43;43.58;103786.09;5118098;27;20258;-80
2022/03/19 18:16:38;;;;;;;2.88;0.90;;;;;;;9.37;43.92;103786.91;5095276;28;20339;-79
2022/03/19 18:19:06;;;;;;;3.08;1.33;;;;;;;9.38;43.94;103786.03;5094045;28;20043;-79
2022/03/19 18:21:31;;;;;;;4.57;1.48;;;;;;;9.37;44.86;103783.44;5106817;28;20031;-79
2022/03/19 18:23:56;;;;;;;3.88;1.35;;;;;;;9.39;44.31;103787.81;5093157;28;20231;-79
2022/03/19 18:26:22;;;;;;;4.78;1.27;;;;;;;9.38;44.90;103786.03;5097964;28;20044;-79
2022/03/19 18:28:48;;;;;;;3.08;1.23;;;;;;;9.33;45.62;103786.84;5097478;28;20050;-79
2022/03/19 18:31:17;;;;;;;1.63;1.20;;;;;;;9.35;45.69;103785.13;5080553;28;20028;-79
2022/03/19 18:33:42;;;;;;;8.10;1.10;;;;;;;9.33;45.71;103781.63;5120244;28;20023;-79
2022/03/19 18:36:07;;;;;;;3.63;1.52;;;;;;;9.27;46.43;103781.56;5095877;28;20086;-79
2022/03/19 18:38:33;;;;;;;2.75;1.45;;;;;;;9.23;46.35;103776.28;5080123;27;20051;-79
2022/03/19 18:40:58;;;;;;;5.15;1.30;;;;;;;9.16;46.59;103774.44;5101899;28;20110;-79
2022/03/19 18:43:23;;;;;;;3.30;1.30;;;;;;;9.09;47.05;103776.97;5120741;28;20024;-79
2022/03/19 18:45:49;;;;;;;2.22;1.40;;;;;;;9.11;47.05;103780.50;5108466;28;20337;-79
2022/03/19 18:48:15;;;;;;;2.78;1.25;;;;;;;9.07;47.43;103776.09;5122159;27;20039;-79
2022/03/19 18:50:40;;;;;;;3.13;1.27;;;;;;;9.07;47.81;103778.69;5091345;28;20031;-79
2022/03/19 18:53:06;;;;;;;2.22;1.00;;;;;;;9.02;47.60;103770.78;5096496;28;20414;-79
2022/03/19 18:55:31;;;;;;;2.17;0.90;;;;;;;9.03;47.41;103773.44;5095665;28;20048;-79
2022/03/19 18:57:56;;;;;;;1.55;0.95;;;;;;;8.97;47.53;103772.50;5090677;28;20111;-79
2022/03/19 19:00:22;;;;;;;4.63;1.70;;;;;;;8.98;47.62;103771.63;5115313;28;20046;-79
2022/03/19 19:02:48;;;;;;;2.08;1.10;;;;;;;8.92;47.92;103767.19;5100686;28;20340;-79
2022/03/19 19:05:13;;;;;;;2.50;1.00;;;;;;;8.90;47.59;103774.13;5086979;28;20262;-79
2022/03/19 19:07:39;;;;;;;2.17;1.00;;;;;;;8.86;48.59;103772.34;5090770;28;20054;-79
2022/03/19 19:10:05;;;;;;;4.28;1.35;;;;;;;8.87;47.89;103768.00;5099698;28;20107;-79
2022/03/19 19:12:31;;;;;;;4.82;1.40;;;;;;;8.84;48.15;103768.81;5092310;28;20039;-79
2022/03/19 19:14:57;;;;;;;1.63;0.90;;;;;;;8.85;48.47;103767.97;5097516;28;20024;-79
2022/03/19 19:17:23;;;;;;;4.78;1.10;;;;;;;8.79;48.88;103767.91;5123627;27;20042;-79
2022/03/19 19:19:49;;;;;;;3.15;1.00;;;;;;;8.76;48.83;103767.84;5115339;27;20092;-79
2022/03/19 19:22:14;;;;;;;3.85;1.30;;;;;;;8.72;49.31;103755.59;5121110;27;20047;-79
2022/03/19 19:24:39;;;;;;;1.85;0.93;;;;;;;8.74;49.37;103766.94;5085490;28;20039;-79
2022/03/19 19:27:06;;;;;;;2.08;0.90;;;;;;;8.72;49.75;103763.44;5121388;27;20060;-79
2022/03/19 19:29:32;;;;;;;3.70;1.02;;;;;;;8.72;49.69;103766.06;5119070;27;20064;-79
2022/03/19 19:31:57;;;;;;;3.50;1.70;;;;;;;8.65;50.23;103767.69;5116289;28;20050;-79
2022/03/19 19:34:23;;;;;;;2.67;1.20;;;;;;;8.63;50.35;103765.06;5095311;28;20019;-79
2022/03/19 19:36:48;;;;;;;2.05;1.00;;;;;;;8.62;50.56;103759.78;5130801;27;20211;-79
2022/03/19 19:39:14;;;;;;;3.63;1.25;;;;;;;8.63;50.42;103751.13;5101696;27;20027;-79
2022/03/19 19:41:39;;;;;;;3.97;1.17;;;;;;;8.55;50.91;103752.72;5095383;28;20081;-79
2022/03/19 19:44:05;;;;;;;3.45;1.65;;;;;;;8.51;51.39;103751.81;5082928;28;20059;-79
2022/03/19 19:46:31;;;;;;;2.45;1.30;;;;;;;8.44;51.87;103752.56;5097120;28;20290;-79
2022/03/19 19:48:57;;;;;;;2.65;1.13;;;;;;;8.42;51.71;103752.56;5115816;27;20319;-79
2022/03/19 19:51:22;;;;;;;2.35;1.10;;;;;;;8.41;52.52;103748.16;5064015;28;20028;-79
2022/03/19 19:53:47;;;;;;;1.63;1.00;;;;;;;8.41;51.96;103748.16;5116768;27;20034;-79
2022/03/19 19:56:14;;;;;;;3.13;1.00;;;;;;;8.37;52.34;103738.53;5102279;27;20110;-79
2022/03/19 19:58:40;;;;;;;5.13;1.35;;;;;;;8.40;52.51;103745.53;5103708;28;20047;-79
2022/03/19 20:01:10;;;;;;;6.50;1.40;;;;;;;8.37;52.31;103742.88;5084765;28;20331;-80
2022/03/19 20:03:36;;;;;;;1.50;1.30;;;;;;;8.28;52.95;103741.00;5115404;27;20227;-79
2022/03/19 20:06:06;;;;;;;9.82;1.88;;;;;;;8.24;53.30;103747.00;5108159;28;20031;-79
2022/03/19 20:08:32;;;;;;;5.20;1.63;;;;;;;8.18;53.58;103742.56;5094927;27;20040;-80
2022/03/19 20:10:58;;;;;;;4.40;1.80;;;;;;;8.15;53.78;103745.16;5118955;27;20258;-80
2022/03/19 20:13:23;;;;;;;4.40;1.17;;;;;;;8.12;53.52;103742.50;5099816;27;20085;-79
2022/03/19 20:15:48;;;;;;;4.32;1.45;;;;;;;8.07;53.54;103737.19;5114784;27;20278;-79
2022/03/19 20:18:14;;;;;;;3.92;1.40;;;;;;;8.08;53.46;103741.56;5117126;27;20054;-79
2022/03/19 20:20:39;;;;;;;4.10;1.67;;;;;;;8.03;53.37;103748.44;5083461;28;20031;-79
2022/03/19 20:23:05;;;;;;;5.15;1.30;;;;;;;8.04;53.51;103739.75;5122972;27;20556;-79
2022/03/19 20:25:30;;;;;;;3.80;1.40;;;;;;;7.99;53.39;103743.16;5077678;28;20047;-79
2022/03/19 20:27:58;;;;;;;5.72;1.42;;;;;;;7.99;53.15;103730.09;5097551;27;20193;-79
2022/03/19 20:30:26;;;;;;;4.25;1.30;;;;;;;7.99;53.00;103730.09;5092837;28;20059;-79
2022/03/19 20:32:53;;;;;;;3.67;1.38;;;;;;;7.96;52.86;103736.13;5126620;27;20449;-79
2022/03/19 20:35:21;;;;;;;8.73;1.52;;;;;;;7.95;53.22;103725.66;5098275;28;20047;-79
2022/03/19 20:37:51;;;;;;;4.20;1.50;;;;;;;7.92;52.70;103733.47;5120228;27;20346;-79
2022/03/19 20:40:20;;;;;;;3.15;1.20;;;;;;;7.95;52.74;103726.56;5132263;27;20242;-79
2022/03/19 20:42:49;;;;;;;4.25;1.20;;;;;;;7.93;52.64;103725.66;5118322;27;20031;-79
2022/03/19 20:45:15;;;;;;;;;;;;;;;7.94;52.90;103734.38;5119543;27;20095;-79
2022/03/19 20:47:42;;;;;;;3.63;1.23;;;;;;;7.91;53.20;103729.09;5115221;27;19915;-79
2022/03/19 20:50:22;;;;;;;2.88;1.40;;;;;;;7.90;53.35;103729.97;5112810;27;20039;-79
2022/03/19 20:52:50;;;;;;;1.25;0.82;;;;;;;7.84;52.77;103721.16;5127562;27;20334;-79
2022/03/19 20:55:19;;;;;;;2.60;1.27;;;;;;;7.82;53.58;103722.88;5101919;27;20296;-79
2022/03/19 20:57:45;;;;;;;3.25;1.45;;;;;;;7.78;53.58;103722.78;5096603;28;20347;-79
2022/03/19 21:00:13;;;;;;;7.68;1.48;;;;;;;7.76;54.46;103719.28;5113277;27;20046;-79
2022/03/19 21:02:41;;;;;;;2.63;1.85;;;;;;;7.73;54.22;103727.03;5119790;27;20066;-79
2022/03/19 21:05:11;;;;;;;2.42;1.20;;;;;;;7.68;54.46;103720.03;5127701;27;20211;-79
2022/03/19 21:07:36;;;;;;;3.67;1.13;;;;;;;7.72;54.67;103720.09;5095864;28;20040;-79
2022/03/19 21:10:02;;;;;;;1.70;1.10;;;;;;;7.66;54.98;103723.47;5119021;27;20093;-79
2022/03/19 21:12:27;;;;;;;3.28;1.48;;;;;;;7.64;55.34;103723.44;5112241;27;20036;-79
2022/03/19 21:14:53;;;;;;;2.33;1.38;;;;;;;7.63;55.69;103718.19;5100539;27;20032;-79
2022/03/19 21:17:19;;;;;;;1.48;1.17;;;;;;;7.60;55.56;103718.13;5093131;28;20058;-79
2022/03/19 21:19:46;;;;;;;1.55;0.98;;;;;;;7.58;55.62;103709.41;5121834;27;20058;-79
2022/03/19 21:22:11;;;;;;;2.35;1.45;;;;;;;7.55;55.79;103705.00;5097355;27;20395;-80
2022/03/19 21:24:37;;;;;;;2.08;1.20;;;;;;;7.53;55.72;103703.22;5078143;27;20416;-80
2022/03/19 21:27:02;;;;;;;1.30;1.20;;;;;;;7.46;55.48;103708.31;5076527;27;20126;-80
2022/03/19 21:29:27;;;;;;;4.45;1.50;;;;;;;7.45;55.77;103705.69;5105640;27;20046;-80
2022/03/19 21:31:53;;;;;;;2.15;1.10;;;;;;;7.41;55.86;103698.66;5085303;28;20349;-80
2022/03/19 21:34:20;;;;;;;3.60;1.80;;;;;;;7.37;55.94;103702.94;5117183;27;20063;-80
2022/03/19 21:36:45;;;;;;;2.00;1.58;;;;;;;7.35;56.17;103698.53;5129234;27;20064;-80
2022/03/19 21:41:54;;;;;;;5.50;1.30;;;;;;;7.32;56.50;103694.16;5099563;28;20058;-80
2022/03/19 21:44:20;;;;;;;3.90;1.50;;;;;;;7.31;56.31;103681.97;5127174;27;20352;-80
2022/03/19 21:46:46;;;;;;;4.38;1.55;;;;;;;7.35;56.62;103683.78;5107884;27;20046;-80
2022/03/19 21:49:12;;;;;;;1.73;1.17;;;;;;;7.27;56.60;103685.38;5107937;27;20031;-80
2022/03/19 21:51:38;;;;;;;2.80;1.45;;;;;;;7.25;56.51;103676.63;5115244;27;20026;-80
2022/03/19 21:54:03;;;;;;;2.67;1.20;;;;;;;7.23;56.67;103683.56;5105448;28;20034;-80
2022/03/19 21:56:28;;;;;;;2.47;1.15;;;;;;;7.22;56.71;103676.56;5107187;27;20061;-80
2022/03/19 21:58:54;;;;;;;2.20;1.10;;;;;;;7.20;56.76;103680.88;5107979;27;20102;-80
2022/03/19 22:01:20;;;;;;;2.08;1.05;;;;;;;7.15;56.85;103669.50;5122227;27;20031;-80
2022/03/19 22:03:45;;;;;;;1.85;1.08;;;;;;;7.09;57.32;103665.03;5106648;27;20328;-80
2022/03/19 22:06:12;;;;;;;2.38;1.42;;;;;;;7.08;56.72;103673.72;5129082;27;20114;-80
2022/03/19 22:08:38;;;;;;;1.23;1.05;;;;;;;7.07;56.28;103661.53;5095907;27;20394;-80
2022/03/19 22:11:03;;;;;;;3.15;1.10;;;;;;;7.08;56.83;103665.91;5089503;28;20048;-80
2022/03/19 22:13:29;;;;;;;1.20;0.90;;;;;;;7.08;56.90;103658.97;5099238;28;20063;-80
2022/03/19 22:15:55;;;;;;;2.08;1.05;;;;;;;7.08;56.42;103655.47;5075358;28;20371;-81
2022/03/19 22:18:21;;;;;;;1.83;0.80;;;;;;;7.10;56.77;103664.22;5094146;28;20028;-81
2022/03/19 22:20:49;;;;;;;2.03;1.15;;;;;;;7.03;56.61;103649.31;5094499;28;20051;-80
2022/03/19 22:23:15;;;;;;;6.90;1.52;;;;;;;7.01;56.57;103645.78;5113947;28;20031;-80
2022/03/19 22:25:44;;;;;;;2.22;1.35;;;;;;;6.99;56.98;103653.56;5096468;28;20074;-80
2022/03/19 22:28:11;;;;;;;2.97;0.90;;;;;;;6.98;57.09;103650.94;5114159;28;20043;-80
2022/03/19 22:30:38;;;;;;;1.45;0.82;;;;;;;6.97;56.83;103642.25;5123292;28;20031;-80
2022/03/19 22:33:04;;;;;;;3.88;1.15;;;;;;;6.94;57.00;103643.91;5098836;28;20073;-80
2022/03/19 22:35:30;;;;;;;1.65;1.10;;;;;;;6.90;57.10;103638.63;5102888;28;20438;-80
2022/03/19 22:37:57;;;;;;;2.35;1.23;;;;;;;6.92;57.58;103638.66;5106264;28;20038;-80
2022/03/19 22:40:24;;;;;;;2.05;1.13;;;;;;;6.88;57.30;103624.72;5124068;28;20043;-80
2022/03/19 22:42:50;;;;;;;2.50;1.45;;;;;;;6.91;57.26;103629.97;5099737;28;20034;-80
2022/03/19 22:45:18;;;;;;;3.05;1.70;;;;;;;6.87;57.55;103628.16;5107189;28;20039;-80
2022/03/19 22:47:44;;;;;;;2.28;1.80;;;;;;;6.85;57.37;103627.25;5119212;28;20086;-80
2022/03/19 22:50:10;;;;;;;2.85;1.77;;;;;;;6.80;57.37;103625.41;5126261;27;20031;-80
2022/03/19 22:52:37;;;;;;;2.83;1.60;;;;;;;6.75;57.80;103621.81;5110421;27;20035;-80
2022/03/19 22:55:04;;;;;;;3.90;1.40;;;;;;;6.75;58.28;103622.72;5113596;27;20041;-80
2022/03/19 22:57:31;;;;;;;1.65;1.10;;;;;;;6.73;58.52;103622.69;5122048;27;20551;-80
2022/03/19 22:59:56;;;;;;;3.10;1.40;;;;;;;6.75;59.31;103617.50;5128474;27;20058;-80
2022/03/19 23:02:22;;;;;;;2.13;1.30;;;;;;;6.74;58.53;103610.53;5120047;27;20113;-80
2022/03/19 23:04:48;;;;;;;2.80;1.15;;;;;;;6.75;58.01;103611.41;5118535;27;20032;-80
2022/03/19 23:07:14;;;;;;;1.67;1.20;;;;;;;6.70;58.65;103611.31;5118197;27;20102;-80
2022/03/19 23:09:40;;;;;;;2.40;1.00;;;;;;;6.60;58.99;103611.97;5100915;28;20414;-80
2022/03/19 23:12:08;;;;;;;2.40;1.20;;;;;;;6.56;58.68;103611.03;5101338;27;20377;-80
2022/03/19 23:14:33;;;;;;;2.55;1.77;;;;;;;6.53;59.28;103611.88;5101780;27;20031;-80
2022/03/19 23:16:59;;;;;;;2.10;1.10;;;;;;;6.50;59.56;103590.97;5102125;27;20035;-80
2022/03/19 23:19:24;;;;;;;8.82;1.35;;;;;;;6.46;59.13;103596.09;5123769;27;20038;-80
2022/03/19 23:21:50;;;;;;;1.10;1.00;;;;;;;6.46;59.62;103590.88;5080958;27;20349;-80
2022/03/19 23:24:17;;;;;;;2.67;1.70;;;;;;;6.46;59.73;103583.94;5112538;27;20039;-80
2022/03/19 23:26:43;;;;;;;1.55;1.20;;;;;;;6.42;59.64;103586.44;5123814;27;20313;-80
2022/03/19 23:29:08;;;;;;;1.23;1.00;;;;;;;6.42;59.61;103583.84;5093879;28;20055;-80
2022/03/19 23:31:35;;;;;;;2.83;1.50;;;;;;;6.33;59.84;103576.72;5136683;27;20224;-80
2022/03/19 23:34:01;;;;;;;3.22;1.30;;;;;;;6.27;59.92;103576.59;5121333;27;20047;-80
2022/03/19 23:36:27;;;;;;;1.13;1.02;;;;;;;6.23;60.21;103578.25;5117629;27;20027;-80
2022/03/19 23:38:52;;;;;;;2.67;1.40;;;;;;;6.19;60.05;103575.56;5117829;27;20032;-80
2022/03/19 23:41:24;;;;;;;3.08;1.58;;;;;;;6.17;60.50;103574.63;5119099;27;20231;-80
2022/03/19 23:43:52;;;;;;;2.55;1.23;;;;;;;6.20;60.73;103566.91;5068613;28;20188;-80
2022/03/19 23:46:17;;;;;;;2.00;1.27;;;;;;;6.21;61.00;103566.06;5124662;27;20043;-80
2022/03/19 23:48:43;;;;;;;2.70;1.67;;;;;;;6.22;60.94;103560.91;5124171;27;20120;-80
2022/03/19 23:51:09;;;;;;;1.83;1.45;;;;;;;6.15;60.99;103559.00;5081177;27;20319;-80
2022/03/19 23:53:34;;;;;;;2.65;1.13;;;;;;;6.13;61.35;103558.97;5109342;27;20397;-80
2022/03/19 23:56:00;;;;;;;2.17;1.30;;;;;;;6.15;60.93;103549.47;5125133;27;20043;-80
2022/03/19 23:58:25;;;;;;;2.72;1.35;;;;;;;6.11;61.41;103552.88;5102403;28;20036;-80
